Tallulah, LA

9:29 PM CDT on July 23, 2014 (GMT -0500)
Vicksburg Tallulah Regional (KTVR) Elev 85 ft | 32.35 °N, 91.03 °W | Change Station

Current weather conditions updated 36 minutes ago

Partly Cloudy
Partly Cloudy
78 °F
Feels Like 78 °F
N
0
Wind Variable Wind from North

Tomorrow is forecast to be nearly the same temperature as today. Afternoon showers and thunderstorms.

Today
High -- | Low -- °F
--% Chance of Precip.
Yesterday
High -- | Low -- °F
Precip. -- in
6:12 AM 8:07 PM
Waning Crescent, 7% visible
Pressure 30.01 in
Visibility 7.0 miles
Clouds Few 7000 ft
Dew Point 76 °F
Humidity 93%
Rainfall 0.00 in
Snow Depth Not available.
UV 0 out of 12
Pollen 3.60 out of 12
Air Quality Not available.
Flu Activity Not available.
METAR KTVR 240153Z AUTO 00000KT 7SM FEW070 26/24 A3000 RMK AO2 SLP163 T02560244 TSNO

More Conditions Fewer Conditions

Pressure 30.01 in
Visibility 7.0 miles
Clouds Few 7000 ft
Dew Point 76 °F
Humidity 93%
Rainfall 0.00 in
Snow Depth Not available.
UV 0 out of 12
Pollen 3.60 out of 12
Air Quality Not available.
Flu Activity Not available.
METAR KTVR 240153Z AUTO 00000KT 7SM FEW070 26/24 A3000 RMK AO2 SLP163 T02560244 TSNO

More Conditions Fewer Conditions

10-Day Weather Forecast

Almanac

Astronomy

Jul. 23, 2014 Rise Set
Actual Time 6:12 AM CDT 8:07 PM CDT
Civil Twilight 5:45 AM CDT 8:35 PM CDT
Nautical Twilight 5:12 AM CDT 9:08 PM CDT
Astronomical Twilight 4:37 AM CDT 9:43 PM CDT
Moon 3:30 AM CDT (7/23) 5:38 PM CDT (7/23)
Length of Visible Light 14h 49m
Length of Day
13h 55m
Tomorrow will be 1m 14s shorter.
Waning Crescent, 7% of the Moon is Illuminated
Today
Waning Crescent
Jul 26
New
Aug 3
First Quarter
Aug 10
Full
Aug 17
Last Quarter

Today's Extremes

State Highs State Lows

Community

WunderPhotos

Upload Photos

1,736,853 photos uploaded!

Nearby

Snow Depth

Station Depth Elevation
No new snow has been reported.

Earthquake Activity

City Distance Mag. Time & Date
No recent earthquake activity has been reported nearby.
Minimum magnitude displayed is 2.5.

Coastal Water Temperatures

Place Temperature
No Stations Reporting

Nearby Weather Stations

Station Location Temp. Heat Index Dew Point Humidity Wind Precip. Elev Updated Type
DANA RD 1, Vicksburg, MS 77.7 °F 80 °F 76 °F 93% South  at  0.0 mph - / hr 243 ft 9:26 PM CDT Normal
Lake Park, Vicksburg, MS 80.2 °F 85 °F 75 °F 84% NNE  at  0.0 mph 0.00 in / hr 249 ft 9:25 PM CDT Normal
Delta Dusters- Newellton, LA, Newellton, LA 80.3 °F 86 °F 77 °F 88% West  at  4.0 mph 0.00 in / hr 75 ft 9:23 PM CDT Normal

Show More Stations Show Fewer Stations